Time;durP1;ratioP1;P1;durP2;ratioP2;P2;SDS_P1;SDS_P2;PMS_P1;PMS_P2;Temp;Humidity;BMP_temperature;BMP_pressure;BME280_temperature;BME280_humidity;BME280_pressure;Samples;Min_cycle;Max_cycle;Signal;HPM_P1;HPM_P2
2021/12/24 00:01:33;;;;;;;0.00;0.00;;;4.80;99.90;;;;;;4998160;28;20630;-68
2021/12/24 00:03:59;;;;;;;0.00;0.00;;;6.10;99.90;;;;;;4995957;28;20046;-68
2021/12/24 00:06:24;;;;;;;0.00;0.00;;;4.80;99.90;;;;;;4997887;28;20042;-67
2021/12/24 00:08:52;;;;;;;0.00;0.00;;;4.80;99.90;;;;;;4996218;28;20111;-68
2021/12/24 00:11:18;;;;;;;0.00;0.00;;;4.90;99.90;;;;;;4997577;28;20426;-67
2021/12/24 00:13:47;;;;;;;0.22;0.22;;;4.80;99.90;;;;;;4997707;28;20053;-68
2021/12/24 00:16:50;;;;;;;0.30;0.22;;;5.60;99.90;;;;;;4999968;28;20092;-67
2021/12/24 00:19:19;;;;;;;0.00;0.00;;;4.90;99.90;;;;;;5000577;28;20049;-68
2021/12/24 00:35:17;;;;;;;0.80;0.80;;;5.00;99.90;;;;;;4980505;28;20079;-67
2021/12/24 00:37:47;;;;;;;0.00;0.00;;;5.00;99.90;;;;;;4981391;28;20078;-68
2021/12/24 00:40:18;;;;;;;0.00;0.00;;;5.10;99.90;;;;;;4981631;28;20520;-67
2021/12/24 00:42:46;;;;;;;0.00;0.00;;;5.00;99.90;;;;;;4979465;28;20062;-68
2021/12/24 00:45:22;;;;;;;5.15;4.68;;;5.60;99.90;;;;;;4981347;28;20042;-67
2021/12/24 00:47:49;;;;;;;0.20;0.20;;;5.10;99.90;;;;;;4981189;28;20049;-68
2021/12/24 00:50:20;;;;;;;0.00;0.00;;;5.30;99.90;;;;;;4980534;28;20050;-68
2021/12/24 00:55:20;;;;;;;0.10;0.10;;;5.10;99.90;;;;;;4981268;28;20209;-68
2021/12/24 00:57:50;;;;;;;0.00;0.00;;;5.20;99.90;;;;;;4979098;28;20059;-68
2021/12/24 01:00:21;;;;;;;0.00;0.00;;;5.10;99.90;;;;;;4979390;28;20054;-67
2021/12/24 01:02:47;;;;;;;0.00;0.00;;;5.20;99.90;;;;;;4979643;28;20049;-68
2021/12/24 01:05:14;;;;;;;0.00;0.00;;;5.20;99.90;;;;;;4980281;28;20417;-68
2021/12/24 01:07:41;;;;;;;0.00;0.00;;;5.50;99.90;;;;;;4981597;28;20054;-68
2021/12/24 01:10:08;;;;;;;0.00;0.00;;;7.00;99.90;;;;;;4980928;28;20045;-68
2021/12/24 01:12:34;;;;;;;0.00;0.00;;;5.30;99.90;;;;;;4979579;28;20544;-68
2021/12/24 01:15:00;;;;;;;0.00;0.00;;;5.30;99.90;;;;;;4979257;28;20054;-68
2021/12/24 01:18:06;;;;;;;0.00;0.00;;;5.30;99.90;;;;;;4979294;28;20460;-68
2021/12/24 01:20:26;;;;;;;0.10;0.10;;;5.30;99.90;;;;;;4978807;28;20046;-68
2021/12/24 01:25:38;;;;;;;0.00;0.00;;;5.40;99.90;;;;;;4980400;28;20049;-68
2021/12/24 01:39:17;;;;;;;0.00;0.00;;;5.50;99.90;;;;;;4998805;28;20669;-68
2021/12/24 01:44:27;;;;;;;0.00;0.00;;;5.50;99.90;;;;;;4998734;28;20397;-67
2021/12/24 01:46:59;;;;;;;0.45;0.45;;;5.60;99.90;;;;;;4982192;28;20053;-67
2021/12/24 01:49:25;;;;;;;0.00;0.00;;;6.10;99.90;;;;;;4997707;28;20054;-67
2021/12/24 01:51:51;;;;;;;0.10;0.10;;;5.70;99.90;;;;;;4998171;28;20053;-67
2021/12/24 01:54:18;;;;;;;0.08;0.08;;;5.70;99.90;;;;;;4999555;28;20049;-67
2021/12/24 01:56:44;;;;;;;0.00;0.00;;;5.70;99.90;;;;;;4997903;28;20064;-67
2021/12/24 01:59:10;;;;;;;0.00;0.00;;;5.80;99.90;;;;;;4996479;28;20582;-67
2021/12/24 02:01:36;;;;;;;0.00;0.00;;;7.20;99.90;;;;;;4997917;28;20646;-67
2021/12/24 02:04:02;;;;;;;0.08;0.08;;;5.90;99.90;;;;;;4972482;23;20059;-65
2021/12/24 02:06:28;;;;;;;0.00;0.00;;;5.90;99.90;;;;;;4939015;28;20104;-65
2021/12/24 02:08:54;;;;;;;0.00;0.00;;;6.00;99.90;;;;;;4937602;28;20563;-66
2021/12/24 02:11:20;;;;;;;0.00;0.00;;;5.90;99.90;;;;;;4938495;28;20070;-65
2021/12/24 02:13:47;;;;;;;0.00;0.00;;;6.00;99.90;;;;;;4937788;28;20057;-65
2021/12/24 02:29:53;;;;;;;0.00;0.00;;;6.50;99.90;;;;;;4929817;28;20886;-65
2021/12/24 02:32:19;;;;;;;0.00;0.00;;;6.00;99.90;;;;;;4918867;29;20296;-66
2021/12/24 02:34:45;;;;;;;0.00;0.00;;;6.50;99.90;;;;;;4918683;29;20048;-65
2021/12/24 02:37:11;;;;;;;0.00;0.00;;;6.10;99.90;;;;;;4918618;28;20098;-65
2021/12/24 02:39:37;;;;;;;0.00;0.00;;;6.10;99.90;;;;;;4919426;28;20059;-67
2021/12/24 02:42:12;;;;;;;0.00;0.00;;;6.10;99.90;;;;;;4932740;29;20044;-66
2021/12/24 02:44:37;;;;;;;0.00;0.00;;;6.10;99.90;;;;;;4918597;29;20143;-66
2021/12/24 02:55:15;;;;;;;0.00;0.00;;;6.60;99.90;;;;;;4927524;28;20475;-65
2021/12/24 02:57:44;;;;;;;0.00;0.00;;;6.20;99.90;;;;;;4918490;29;20488;-65
2021/12/24 03:00:19;;;;;;;0.00;0.00;;;6.20;99.90;;;;;;4918950;29;20131;-66
2021/12/24 03:02:46;;;;;;;0.00;0.00;;;6.20;99.90;;;;;;4918650;29;20617;-65
2021/12/24 03:05:14;;;;;;;0.00;0.00;;;6.20;99.90;;;;;;4918850;28;20048;-65
2021/12/24 03:07:41;;;;;;;0.00;0.00;;;6.20;99.90;;;;;;4918864;28;20051;-66
2021/12/24 03:10:12;;;;;;;0.10;0.10;;;7.30;99.90;;;;;;4917791;29;20044;-65
2021/12/24 03:12:39;;;;;;;0.10;0.10;;;6.30;99.90;;;;;;4918040;28;20056;-65
2021/12/24 03:15:06;;;;;;;0.00;0.00;;;6.30;99.90;;;;;;4918390;29;20043;-66
2021/12/24 03:17:32;;;;;;;0.00;0.00;;;6.20;99.90;;;;;;4918312;29;20139;-66
2021/12/24 03:20:04;;;;;;;0.00;0.00;;;6.30;99.90;;;;;;4918963;29;20414;-65
2021/12/24 03:25:31;;;;;;;0.00;0.00;;;6.20;99.90;;;;;;4934974;29;20270;-65
2021/12/24 03:27:58;;;;;;;0.00;0.00;;;6.30;99.90;;;;;;4923609;29;20047;-66
2021/12/24 03:30:23;;;;;;;0.00;0.00;;;6.30;99.90;;;;;;4925085;29;20051;-65
2021/12/24 03:32:49;;;;;;;0.00;0.00;;;6.30;99.90;;;;;;4917588;29;20500;-65
2021/12/24 03:35:15;;;;;;;0.00;0.00;;;6.40;99.90;;;;;;4918476;29;20118;-64
2021/12/24 03:37:40;;;;;;;0.10;0.10;;;6.30;99.90;;;;;;4918568;29;20044;-61
2021/12/24 03:40:06;;;;;;;0.00;0.00;;;6.40;99.90;;;;;;4917953;29;20094;-65
2021/12/24 03:42:36;;;;;;;1.27;1.17;;;6.30;99.90;;;;;;4917941;29;20149;-65
2021/12/24 03:45:18;;;;;;;0.00;0.00;;;6.70;99.90;;;;;;4918410;28;20043;-65
2021/12/24 03:47:51;;;;;;;0.10;0.10;;;;;;;;;;4919185;29;20062;-66
2021/12/24 03:50:17;;;;;;;0.00;0.00;;;6.40;99.90;;;;;;4936365;28;20127;-65
2021/12/24 03:53:05;;;;;;;0.00;0.00;;;6.40;99.90;;;;;;4920164;28;20131;-64
2021/12/24 03:55:31;;;;;;;0.00;0.00;;;6.40;99.90;;;;;;4922034;29;20048;-66
2021/12/24 03:57:57;;;;;;;0.00;0.00;;;6.50;99.90;;;;;;4920700;29;20560;-65
2021/12/24 04:00:27;;;;;;;0.00;0.00;;;6.40;99.90;;;;;;4921498;29;20047;-65
2021/12/24 04:02:52;;;;;;;0.00;0.00;;;6.50;99.90;;;;;;4920298;29;20245;-66
2021/12/24 04:05:18;;;;;;;0.00;0.00;;;6.40;99.90;;;;;;4921344;28;20102;-65
2021/12/24 04:07:44;;;;;;;0.00;0.00;;;6.50;99.90;;;;;;4921332;29;20055;-66
2021/12/24 04:13:14;;;;;;;0.00;0.00;;;6.50;99.90;;;;;;4902015;29;20589;-65
2021/12/24 04:15:39;;;;;;;0.00;0.00;;;6.50;99.90;;;;;;4920058;29;20473;-66
2021/12/24 04:18:13;;;;;;;0.00;0.00;;;6.50;99.90;;;;;;4921157;29;20043;-65
2021/12/24 04:26:08;;;;;;;0.00;0.00;;;6.50;99.90;;;;;;4921230;28;20438;-66
2021/12/24 04:28:34;;;;;;;0.00;0.00;;;6.50;99.90;;;;;;4923856;29;20052;-65
2021/12/24 04:31:01;;;;;;;0.20;0.20;;;6.60;99.90;;;;;;4927492;28;20043;-65
2021/12/24 04:33:39;;;;;;;0.00;0.00;;;6.60;99.90;;;;;;4920755;29;20055;-65
2021/12/24 05:03:13;;;;;;;0.00;0.00;;;6.90;99.90;;;;;;4919605;28;20202;-65
2021/12/24 05:10:39;;;;;;;0.00;0.00;;;7.10;99.90;;;;;;4919999;28;20054;-65
2021/12/24 05:13:11;;;;;;;0.00;0.00;;;7.00;99.90;;;;;;4919641;29;20406;-66
2021/12/24 05:15:39;;;;;;;0.00;0.00;;;7.10;99.90;;;;;;4920433;29;20048;-65
2021/12/24 05:23:17;;;;;;;0.00;0.00;;;7.20;99.90;;;;;;4920114;28;20099;-65
2021/12/24 05:25:44;;;;;;;0.00;0.00;;;7.20;99.90;;;;;;4919463;28;20083;-65
2021/12/24 05:28:11;;;;;;;0.00;0.00;;;7.80;99.90;;;;;;4922241;29;20044;-65
2021/12/24 05:30:38;;;;;;;0.00;0.00;;;7.30;99.90;;;;;;4928531;29;20577;-65
2021/12/24 05:33:04;;;;;;;0.00;0.00;;;7.20;99.90;;;;;;4919709;29;20055;-65
2021/12/24 05:35:30;;;;;;;0.00;0.00;;;7.20;99.90;;;;;;4920338;28;20055;-65
2021/12/24 05:37:55;;;;;;;0.00;0.00;;;7.30;99.90;;;;;;4919920;29;20522;-65
2021/12/24 05:40:21;;;;;;;0.00;0.00;;;7.30;99.90;;;;;;4920018;28;20067;-65
2021/12/24 05:42:47;;;;;;;0.00;0.00;;;7.30;99.90;;;;;;4918279;29;20055;-65
2021/12/24 05:45:13;;;;;;;0.00;0.00;;;7.30;99.90;;;;;;4919934;28;20035;-65
2021/12/24 05:47:39;;;;;;;0.00;0.00;;;7.40;99.90;;;;;;4919852;29;20119;-65
2021/12/24 05:50:05;;;;;;;0.00;0.00;;;7.40;99.90;;;;;;4919530;29;20506;-65
2021/12/24 05:52:32;;;;;;;0.00;0.00;;;7.40;99.90;;;;;;4919001;29;20082;-65
2021/12/24 05:54:58;;;;;;;0.00;0.00;;;7.40;99.90;;;;;;4920061;29;20859;-64
2021/12/24 05:57:24;;;;;;;0.10;0.10;;;7.50;99.90;;;;;;4918987;29;20131;-65
2021/12/24 05:59:49;;;;;;;0.00;0.00;;;7.50;99.90;;;;;;4919668;29;20101;-65
2021/12/24 06:02:15;;;;;;;0.25;0.25;;;7.50;99.90;;;;;;4918746;28;20044;-65
2021/12/24 06:04:41;;;;;;;0.00;0.00;;;7.50;99.90;;;;;;4934292;29;20068;-65
2021/12/24 06:07:07;;;;;;;0.15;0.15;;;7.50;99.90;;;;;;4919618;29;20099;-64
2021/12/24 06:09:32;;;;;;;0.00;0.00;;;7.90;99.90;;;;;;4920065;28;20140;-60
2021/12/24 06:11:58;;;;;;;0.00;0.00;;;7.50;99.90;;;;;;4917327;29;20556;-65
2021/12/24 06:14:24;;;;;;;0.00;0.00;;;7.90;99.90;;;;;;4919562;29;20072;-65
2021/12/24 06:17:01;;;;;;;0.00;0.00;;;7.50;99.90;;;;;;4919469;29;20177;-64
2021/12/24 06:19:28;;;;;;;0.05;0.05;;;7.60;99.90;;;;;;4918666;29;20048;-65
2021/12/24 06:21:54;;;;;;;0.00;0.00;;;8.00;99.90;;;;;;4919139;29;20044;-65
2021/12/24 06:24:20;;;;;;;0.00;0.00;;;7.80;99.90;;;;;;4919357;29;20047;-65
2021/12/24 06:26:47;;;;;;;0.00;0.00;;;7.60;99.90;;;;;;4919268;29;20043;-65
2021/12/24 06:29:13;;;;;;;0.00;0.00;;;7.60;99.90;;;;;;4926876;28;20050;-64
2021/12/24 06:31:38;;;;;;;0.00;0.00;;;7.90;99.90;;;;;;4920743;28;20048;-65
2021/12/24 06:34:05;;;;;;;0.00;0.00;;;7.50;99.90;;;;;;4918846;29;20044;-65
2021/12/24 06:36:34;;;;;;;0.00;0.00;;;8.00;99.90;;;;;;4919598;29;20048;-65
2021/12/24 06:39:00;;;;;;;0.03;0.03;;;7.50;99.90;;;;;;4919370;29;20043;-65
2021/12/24 06:41:26;;;;;;;0.00;0.00;;;7.50;99.90;;;;;;4919071;28;20067;-65
2021/12/24 06:43:52;;;;;;;0.28;0.20;;;7.50;99.90;;;;;;4918459;29;20141;-65
2021/12/24 06:46:17;;;;;;;0.30;0.20;;;7.50;99.90;;;;;;4918147;29;20149;-65
2021/12/24 06:48:45;;;;;;;0.00;0.00;;;8.30;99.90;;;;;;4918851;28;20439;-65
2021/12/24 06:51:11;;;;;;;0.00;0.00;;;7.50;99.90;;;;;;4918957;28;20043;-65
2021/12/24 06:53:37;;;;;;;0.10;0.10;;;7.50;99.90;;;;;;4918850;29;20051;-65
2021/12/24 06:56:03;;;;;;;0.00;0.00;;;7.50;99.90;;;;;;4916971;29;20047;-63
2021/12/24 06:58:29;;;;;;;0.00;0.00;;;7.50;99.90;;;;;;4918814;29;20098;-66
2021/12/24 07:00:55;;;;;;;0.00;0.00;;;7.30;99.90;;;;;;4918742;29;20135;-65
2021/12/24 07:03:21;;;;;;;0.10;0.10;;;7.50;99.90;;;;;;4918418;28;20168;-65
2021/12/24 07:05:46;;;;;;;0.00;0.00;;;7.50;99.90;;;;;;4917762;28;20546;-65
2021/12/24 07:08:12;;;;;;;0.10;0.10;;;7.50;99.90;;;;;;4933259;28;20490;-66
2021/12/24 07:10:37;;;;;;;0.00;0.00;;;7.50;99.90;;;;;;4917470;29;20545;-66
2021/12/24 07:13:03;;;;;;;0.00;0.00;;;7.50;99.90;;;;;;4917599;28;20062;-65
2021/12/24 07:15:29;;;;;;;0.90;0.57;;;7.50;99.90;;;;;;4918221;28;20043;-65
2021/12/24 07:17:54;;;;;;;0.00;0.00;;;7.50;99.90;;;;;;4918413;29;20047;-65
2021/12/24 07:20:20;;;;;;;0.00;0.00;;;7.50;99.90;;;;;;4918477;29;20055;-64
2021/12/24 07:22:45;;;;;;;0.00;0.00;;;7.50;99.90;;;;;;4920263;29;20067;-65
2021/12/24 07:25:11;;;;;;;0.00;0.00;;;7.50;99.90;;;;;;4920947;29;20043;-64
2021/12/24 07:27:38;;;;;;;0.00;0.00;;;7.50;99.90;;;;;;4922504;29;20054;-64
2021/12/24 07:30:08;;;;;;;0.00;0.00;;;7.50;99.90;;;;;;4931083;28;20040;-64
2021/12/24 07:32:33;;;;;;;0.00;0.00;;;7.50;99.90;;;;;;4920864;29;20125;-65
2021/12/24 07:34:59;;;;;;;0.00;0.00;;;7.50;99.90;;;;;;4922113;28;20051;-64
2021/12/24 07:37:25;;;;;;;0.10;0.10;;;8.00;99.90;;;;;;4921772;29;20488;-64
2021/12/24 07:39:50;;;;;;;0.00;0.00;;;7.90;99.90;;;;;;4921965;29;20040;-64
2021/12/24 07:42:16;;;;;;;0.00;0.00;;;7.50;99.90;;;;;;4920024;29;20421;-64
2021/12/24 07:44:42;;;;;;;0.00;0.00;;;7.80;99.90;;;;;;4921551;29;20070;-64
2021/12/24 07:47:15;;;;;;;0.20;0.20;;;7.50;99.90;;;;;;4921428;29;20094;-65
2021/12/24 07:49:42;;;;;;;0.00;0.00;;;7.50;99.90;;;;;;4921494;29;20640;-64
2021/12/24 07:52:08;;;;;;;0.00;0.00;;;7.40;99.90;;;;;;4921399;28;20127;-59
2021/12/24 07:54:41;;;;;;;0.00;0.00;;;7.30;99.90;;;;;;4921692;29;20327;-65
2021/12/24 07:57:09;;;;;;;0.00;0.00;;;8.70;99.90;;;;;;4921156;28;20134;-66
2021/12/24 07:59:38;;;;;;;0.00;0.00;;;7.20;99.90;;;;;;4955684;28;20056;-66
2021/12/24 08:02:07;;;;;;;0.00;0.00;;;7.10;99.90;;;;;;4985501;28;21943;-66
2021/12/24 08:04:33;;;;;;;0.00;0.00;;;7.00;99.90;;;;;;5021295;28;20100;-65
2021/12/24 08:07:02;;;;;;;0.00;0.00;;;6.90;99.90;;;;;;5020748;28;20138;-66
2021/12/24 08:09:28;;;;;;;0.00;0.00;;;6.90;99.90;;;;;;5021795;28;20175;-66
2021/12/24 08:11:53;;;;;;;0.00;0.00;;;6.90;99.90;;;;;;4988189;28;20044;-66
2021/12/24 08:14:19;;;;;;;0.00;0.00;;;6.80;99.90;;;;;;4984159;28;20053;-67
2021/12/24 08:16:45;;;;;;;0.00;0.00;;;6.80;99.90;;;;;;4975236;28;20043;-67
2021/12/24 08:19:13;;;;;;;0.00;0.00;;;8.20;99.90;;;;;;4979945;28;20163;-66
2021/12/24 08:21:39;;;;;;;0.00;0.00;;;6.80;99.90;;;;;;4955329;28;20036;-67
2021/12/24 08:24:05;;;;;;;0.00;0.00;;;6.80;99.90;;;;;;4939465;28;20050;-70
2021/12/24 08:26:31;;;;;;;0.00;0.00;;;6.70;99.90;;;;;;4938276;28;20035;-61
2021/12/24 08:28:57;;;;;;;0.00;0.00;;;6.70;99.90;;;;;;4938351;28;20062;-66
2021/12/24 08:31:22;;;;;;;0.00;0.00;;;6.80;99.90;;;;;;4940102;28;20043;-66
2021/12/24 08:33:48;;;;;;;0.00;0.00;;;6.60;99.90;;;;;;4938167;28;20043;-66
2021/12/24 08:36:14;;;;;;;0.00;0.00;;;6.50;99.90;;;;;;4939163;28;20482;-66
2021/12/24 08:38:40;;;;;;;0.00;0.00;;;6.30;99.90;;;;;;4940175;28;20054;-67
2021/12/24 08:41:05;;;;;;;0.00;0.00;;;6.20;99.90;;;;;;4938245;29;20051;-66
2021/12/24 08:43:31;;;;;;;0.00;0.00;;;6.20;99.90;;;;;;4938746;28;20063;-67
2021/12/24 08:45:57;;;;;;;0.00;0.00;;;6.00;99.90;;;;;;4937883;29;20048;-67
2021/12/24 08:48:23;;;;;;;0.00;0.00;;;6.00;99.90;;;;;;4939808;28;20132;-68
2021/12/24 08:50:49;;;;;;;0.00;0.00;;;5.90;99.90;;;;;;4938532;29;20047;-67
2021/12/24 08:53:15;;;;;;;0.00;0.00;;;5.90;99.90;;;;;;4938793;28;20508;-67
2021/12/24 08:55:41;;;;;;;0.00;0.00;;;5.90;99.90;;;;;;4939693;28;20046;-63
2021/12/24 08:58:07;;;;;;;0.00;0.00;;;7.40;99.90;;;;;;4961244;28;20057;-68
2021/12/24 09:00:34;;;;;;;0.00;0.00;;;7.00;99.90;;;;;;4962377;28;20031;-67
2021/12/24 09:03:01;;;;;;;0.00;0.00;;;5.80;99.90;;;;;;4971326;28;20055;-68
2021/12/24 09:05:28;;;;;;;0.00;0.00;;;5.80;99.90;;;;;;4980531;28;20081;-67
2021/12/24 09:07:54;;;;;;;0.00;0.00;;;5.80;99.90;;;;;;4964399;28;20314;-67
2021/12/24 09:10:20;;;;;;;0.00;0.00;;;5.80;99.90;;;;;;4939606;28;20050;-65
2021/12/24 09:12:46;;;;;;;0.00;0.00;;;5.70;99.90;;;;;;4937981;28;20608;-66
2021/12/24 09:15:13;;;;;;;0.00;0.00;;;5.70;99.90;;;;;;4939715;28;20114;-67
2021/12/24 09:17:44;;;;;;;0.00;0.00;;;5.70;99.90;;;;;;4940051;28;20462;-66
2021/12/24 09:20:14;;;;;;;0.00;0.00;;;6.10;99.90;;;;;;4937238;29;20051;-67
2021/12/24 09:22:40;;;;;;;0.00;0.00;;;5.70;99.90;;;;;;4941827;28;20131;-65
2021/12/24 09:25:07;;;;;;;0.00;0.00;;;5.60;99.90;;;;;;4957883;28;20463;-66
2021/12/24 09:27:33;;;;;;;0.00;0.00;;;5.60;99.90;;;;;;4957688;28;20055;-66
2021/12/24 09:29:59;;;;;;;0.00;0.00;;;5.70;99.90;;;;;;4933918;28;20054;-66
2021/12/24 09:32:28;;;;;;;0.00;0.00;;;5.60;99.90;;;;;;4937591;28;20043;-66
2021/12/24 09:34:54;;;;;;;0.00;0.00;;;5.60;99.90;;;;;;4937676;28;20047;-66
2021/12/24 09:37:20;;;;;;;0.00;0.00;;;5.60;99.90;;;;;;4937803;29;20044;-66
2021/12/24 09:39:46;;;;;;;0.00;0.00;;;5.60;99.90;;;;;;4948961;28;20125;-66
2021/12/24 09:42:12;;;;;;;0.00;0.00;;;5.50;99.90;;;;;;4947892;28;20054;-66
2021/12/24 09:44:38;;;;;;;0.00;0.00;;;5.40;99.90;;;;;;4970822;28;20443;-66
2021/12/24 09:47:04;;;;;;;0.00;0.00;;;5.40;99.90;;;;;;4982126;28;20079;-66
2021/12/24 09:49:30;;;;;;;0.00;0.00;;;5.30;99.90;;;;;;4975204;28;20371;-66
2021/12/24 09:51:57;;;;;;;0.00;0.00;;;5.30;99.90;;;;;;4978693;28;20068;-64
2021/12/24 09:54:24;;;;;;;0.00;0.00;;;5.30;99.90;;;;;;4971365;28;20046;-65
2021/12/24 09:56:52;;;;;;;0.00;0.00;;;5.30;99.90;;;;;;4937694;28;20494;-65
2021/12/24 09:59:18;;;;;;;0.00;0.00;;;5.20;99.90;;;;;;4971436;28;20059;-65
2021/12/24 10:01:56;;;;;;;0.00;0.00;;;5.20;99.90;;;;;;4957557;28;20545;-66
2021/12/24 10:04:25;;;;;;;0.00;0.00;;;5.20;99.90;;;;;;4938237;28;20048;-66
2021/12/24 10:06:53;;;;;;;0.00;0.00;;;5.10;99.90;;;;;;4937990;28;20089;-66
2021/12/24 10:09:20;;;;;;;0.00;0.00;;;5.10;99.90;;;;;;4938282;28;20054;-66
2021/12/24 10:11:55;;;;;;;0.00;0.00;;;5.10;99.90;;;;;;4937653;28;20126;-66
2021/12/24 10:14:21;;;;;;;;;;;5.10;99.90;;;;;;4937975;28;20409;-66
2021/12/24 10:16:50;;;;;;;0.00;0.00;;;5.10;99.90;;;;;;4938011;28;19957;-65
2021/12/24 10:19:19;;;;;;;0.00;0.00;;;5.00;99.90;;;;;;4921531;28;20043;-66
2021/12/24 10:21:45;;;;;;;0.00;0.00;;;5.00;99.90;;;;;;4917567;29;20039;-65
2021/12/24 10:24:18;;;;;;;0.00;0.00;;;5.00;99.90;;;;;;4940438;28;20037;-65
2021/12/24 10:26:47;;;;;;;0.00;0.00;;;5.00;99.90;;;;;;5010652;28;20754;-65
2021/12/24 10:29:41;;;;;;;0.00;0.00;;;5.00;99.90;;;;;;4943240;28;20126;-65
2021/12/24 10:32:18;;;;;;;0.00;0.00;;;4.90;99.90;;;;;;4919179;28;20055;-65
2021/12/24 10:34:45;;;;;;;0.00;0.00;;;4.90;99.90;;;;;;4918058;28;20048;-65
2021/12/24 10:37:22;;;;;;;0.00;0.00;;;4.90;99.90;;;;;;4918900;29;20067;-68
2021/12/24 10:39:55;;;;;;;0.00;0.00;;;4.80;99.90;;;;;;4917734;29;20084;-66
2021/12/24 10:42:26;;;;;;;0.00;0.00;;;4.80;99.90;;;;;;4916853;28;20051;-66
2021/12/24 10:44:54;;;;;;;0.00;0.00;;;4.80;99.90;;;;;;4918938;29;20078;-66
2021/12/24 10:47:22;;;;;;;0.00;0.00;;;5.20;99.90;;;;;;4918709;28;20055;-66
2021/12/24 10:55:37;;;;;;;0.00;0.00;;;4.90;99.90;;;;;;4917471;28;20088;-65
2021/12/24 10:58:06;;;;;;;0.00;0.00;;;4.90;99.90;;;;;;4916865;29;20242;-65
2021/12/24 11:00:38;;;;;;;0.00;0.00;;;4.80;99.90;;;;;;4919066;29;20043;-65
2021/12/24 11:03:10;;;;;;;0.00;0.00;;;4.80;99.90;;;;;;4918480;28;20059;-65
2021/12/24 11:05:47;;;;;;;0.00;0.00;;;4.70;99.90;;;;;;4918740;29;20089;-65
2021/12/24 11:08:15;;;;;;;0.00;0.00;;;4.70;99.90;;;;;;4917564;29;20082;-64
2021/12/24 11:10:44;;;;;;;0.00;0.00;;;4.70;99.90;;;;;;4918400;29;20050;-64
2021/12/24 11:13:15;;;;;;;0.00;0.00;;;4.70;99.90;;;;;;4918283;29;20059;-65
2021/12/24 11:15:47;;;;;;;0.00;0.00;;;4.70;99.90;;;;;;4917746;28;20040;-63
2021/12/24 11:18:54;;;;;;;0.00;0.00;;;4.70;99.90;;;;;;4918609;28;20105;-65
2021/12/24 11:21:25;;;;;;;0.00;0.00;;;4.70;99.90;;;;;;4965656;28;20060;-65
2021/12/24 11:23:51;;;;;;;0.00;0.00;;;4.70;99.90;;;;;;4918363;28;20407;-65
2021/12/24 11:26:29;;;;;;;0.00;0.00;;;4.70;99.90;;;;;;4916698;29;20058;-65
2021/12/24 11:28:56;;;;;;;0.00;0.00;;;4.70;99.90;;;;;;4925396;29;20410;-65
2021/12/24 11:31:24;;;;;;;0.00;0.00;;;4.70;99.90;;;;;;4920218;28;20051;-65
2021/12/24 11:33:52;;;;;;;0.00;0.00;;;4.70;99.90;;;;;;4918146;29;20052;-65
2021/12/24 11:36:23;;;;;;;0.00;0.00;;;4.70;99.90;;;;;;4917792;28;20043;-64
2021/12/24 11:38:54;;;;;;;0.00;0.00;;;4.70;99.90;;;;;;4917202;29;20055;-61
2021/12/24 11:41:25;;;;;;;0.00;0.00;;;4.70;99.90;;;;;;4917835;29;20052;-64
2021/12/24 11:43:52;;;;;;;0.00;0.00;;;6.10;99.90;;;;;;4918344;28;20091;-65
2021/12/24 11:46:21;;;;;;;0.00;0.00;;;5.50;99.90;;;;;;4936292;28;20049;-66
2021/12/24 11:48:48;;;;;;;0.00;0.00;;;5.30;99.90;;;;;;4970390;28;20612;-67
2021/12/24 11:51:20;;;;;;;0.00;0.00;;;5.30;99.90;;;;;;4966847;28;20081;-66
2021/12/24 11:53:46;;;;;;;0.00;0.00;;;5.20;99.90;;;;;;4979816;28;20051;-66
2021/12/24 11:56:16;;;;;;;0.00;0.00;;;5.10;99.90;;;;;;4972196;28;20039;-60
2021/12/24 11:58:49;;;;;;;0.00;0.00;;;5.10;99.90;;;;;;4974577;28;20045;-65
2021/12/24 12:01:21;;;;;;;0.00;0.00;;;5.00;99.90;;;;;;4944339;28;20051;-65
2021/12/24 12:03:51;;;;;;;0.00;0.00;;;5.00;99.90;;;;;;4928572;28;20065;-65
2021/12/24 12:06:17;;;;;;;0.00;0.00;;;5.00;99.90;;;;;;4934854;29;20104;-65
2021/12/24 12:08:45;;;;;;;0.00;0.00;;;5.00;99.90;;;;;;4937174;28;20046;-65
2021/12/24 12:11:24;;;;;;;0.00;0.00;;;4.90;99.90;;;;;;4939680;28;20083;-64
2021/12/24 12:13:52;;;;;;;0.00;0.00;;;4.90;99.90;;;;;;4938996;28;20045;-66
2021/12/24 12:16:28;;;;;;;0.00;0.00;;;4.90;99.90;;;;;;4940233;28;20154;-65
2021/12/24 12:19:23;;;;;;;0.00;0.00;;;4.90;99.90;;;;;;4939317;28;20051;-65
2021/12/24 12:24:57;;;;;;;0.00;0.00;;;4.90;99.90;;;;;;4944608;28;20473;-64
2021/12/24 12:27:34;;;;;;;0.00;0.00;;;4.90;99.90;;;;;;4939017;28;20580;-64
2021/12/24 12:30:31;;;;;;;0.00;0.00;;;5.90;99.90;;;;;;4928811;29;20058;-66
2021/12/24 12:33:11;;;;;;;0.00;0.00;;;5.10;99.90;;;;;;4938664;29;20224;-64
2021/12/24 12:35:54;;;;;;;0.00;0.00;;;5.00;99.90;;;;;;4939330;28;20085;-66
2021/12/24 12:38:27;;;;;;;0.00;0.00;;;4.90;99.90;;;;;;4939350;28;20043;-66
2021/12/24 12:40:53;;;;;;;0.00;0.00;;;4.80;99.90;;;;;;4937566;28;20051;-66
2021/12/24 12:43:21;;;;;;;0.00;0.00;;;5.00;99.90;;;;;;4937819;28;20164;-68
2021/12/24 12:45:48;;;;;;;0.00;0.00;;;5.00;99.90;;;;;;4953277;28;20047;-67
2021/12/24 12:48:26;;;;;;;0.00;0.00;;;4.90;99.90;;;;;;4939409;28;20051;-66
2021/12/24 12:51:00;;;;;;;0.00;0.00;;;4.80;99.90;;;;;;4939556;28;20044;-65
2021/12/24 12:53:29;;;;;;;0.00;0.00;;;4.70;99.90;;;;;;4939160;28;20528;-65
2021/12/24 12:56:16;;;;;;;0.00;0.00;;;4.70;99.90;;;;;;4937812;28;20558;-65
2021/12/24 12:58:47;;;;;;;0.00;0.00;;;4.70;99.90;;;;;;4922971;28;20135;-65
2021/12/24 13:01:17;;;;;;;0.00;0.00;;;4.70;99.90;;;;;;4918730;29;20105;-62
2021/12/24 13:03:58;;;;;;;0.00;0.00;;;4.70;99.90;;;;;;4919531;29;20094;-64
2021/12/24 13:06:42;;;;;;;0.00;0.00;;;4.60;99.90;;;;;;4920242;28;20051;-66
2021/12/24 13:09:21;;;;;;;0.00;0.00;;;5.50;99.90;;;;;;4920218;28;20059;-65
2021/12/24 13:11:51;;;;;;;0.00;0.00;;;5.30;99.90;;;;;;4919230;28;20071;-65
2021/12/24 13:14:19;;;;;;;0.00;0.00;;;5.10;99.90;;;;;;4919067;28;20098;-65
2021/12/24 13:16:54;;;;;;;0.00;0.00;;;5.00;99.90;;;;;;4920200;29;20413;-65
2021/12/24 13:20:11;;;;;;;0.00;0.00;;;4.90;99.90;;;;;;4933044;29;20042;-66
2021/12/24 13:25:02;;;;;;;0.00;0.00;;;4.90;99.90;;;;;;4938516;28;20142;-66
2021/12/24 13:27:32;;;;;;;0.00;0.00;;;4.90;99.90;;;;;;4935354;28;20498;-65
2021/12/24 13:30:07;;;;;;;0.00;0.00;;;4.90;99.90;;;;;;4934054;28;20069;-65
2021/12/24 13:32:37;;;;;;;;;;;4.80;99.90;;;;;;4962351;28;20068;-59
2021/12/24 13:35:03;;;;;;;0.00;0.00;;;4.80;99.90;;;;;;4971529;28;20139;-59
2021/12/24 13:37:33;;;;;;;0.00;0.00;;;4.70;99.90;;;;;;4939038;28;20089;-65
2021/12/24 13:39:59;;;;;;;0.00;0.00;;;4.80;99.90;;;;;;4938819;28;20058;-65
2021/12/24 13:42:24;;;;;;;0.00;0.00;;;4.80;99.90;;;;;;4979769;28;20396;-66
2021/12/24 13:45:01;;;;;;;0.00;0.00;;;4.70;99.90;;;;;;4981874;28;20315;-66
2021/12/24 13:55:32;;;;;;;0.00;0.00;;;4.80;99.90;;;;;;5018533;28;20416;-66
2021/12/24 13:58:10;;;;;;;0.00;0.00;;;4.80;99.90;;;;;;4961129;28;20070;-66
2021/12/24 14:00:49;;;;;;;0.00;0.00;;;4.80;99.90;;;;;;4937970;28;20539;-66
2021/12/24 14:03:15;;;;;;;0.00;0.00;;;5.10;99.90;;;;;;4934416;28;20181;-65
2021/12/24 14:05:47;;;;;;;0.00;0.00;;;4.80;99.90;;;;;;4923548;28;20128;-59
2021/12/24 14:08:18;;;;;;;0.00;0.00;;;4.80;99.90;;;;;;4924919;29;20050;-58
2021/12/24 14:10:45;;;;;;;0.00;0.00;;;4.80;99.90;;;;;;4923390;29;20427;-66
2021/12/24 14:13:19;;;;;;;0.00;0.00;;;4.80;99.90;;;;;;4924538;29;20040;-66
2021/12/24 14:16:40;;;;;;;0.00;0.00;;;5.10;99.90;;;;;;4925299;28;20051;-67
2021/12/24 14:18:45;;;;;;;0.00;0.00;;;4.80;99.90;;;;;;4923707;28;20117;-65
2021/12/24 14:24:06;;;;;;;0.00;0.00;;;4.80;99.90;;;;;;4925130;28;20498;-66
2021/12/24 14:26:33;;;;;;;0.00;0.00;;;4.80;99.90;;;;;;4927026;28;20097;-66
2021/12/24 14:29:05;;;;;;;0.00;0.00;;;4.80;99.90;;;;;;4924959;29;20081;-66
2021/12/24 14:31:46;;;;;;;0.00;0.00;;;4.30;99.90;;;;;;4925253;28;20052;-66
2021/12/24 14:34:12;;;;;;;0.00;0.00;;;4.80;99.90;;;;;;4923908;28;20058;-67
2021/12/24 14:37:00;;;;;;;0.00;0.00;;;4.80;99.90;;;;;;4923654;28;20055;-66
2021/12/24 14:39:32;;;;;;;0.00;0.00;;;4.80;99.90;;;;;;4924627;29;20058;-67
2021/12/24 14:42:15;;;;;;;0.00;0.00;;;4.80;99.90;;;;;;4924080;28;20127;-67
2021/12/24 14:44:42;;;;;;;0.00;0.00;;;4.90;99.90;;;;;;4921947;29;20078;-67
2021/12/24 14:47:09;;;;;;;0.00;0.00;;;4.80;99.90;;;;;;4926779;28;20767;-66
2021/12/24 14:49:40;;;;;;;0.00;0.00;;;4.90;99.90;;;;;;4925320;28;20055;-67
2021/12/24 14:52:24;;;;;;;0.00;0.00;;;4.90;99.90;;;;;;4925361;29;20065;-66
2021/12/24 14:55:11;;;;;;;0.00;0.00;;;4.90;99.90;;;;;;4925366;29;20717;-65
2021/12/24 14:57:46;;;;;;;0.00;0.00;;;4.90;99.90;;;;;;4923858;28;20040;-66
2021/12/24 15:00:15;;;;;;;0.00;0.00;;;5.00;99.90;;;;;;4924577;29;20489;-65
2021/12/24 15:02:48;;;;;;;0.00;0.00;;;4.90;99.90;;;;;;4924046;29;20055;-58
2021/12/24 15:05:50;;;;;;;0.00;0.00;;;6.40;99.90;;;;;;4924360;28;20070;-65
2021/12/24 15:08:24;;;;;;;0.00;0.00;;;4.90;99.90;;;;;;4924838;29;20069;-65
2021/12/24 15:11:18;;;;;;;0.00;0.00;;;4.80;99.90;;;;;;4923223;29;20129;-65
2021/12/24 15:13:51;;;;;;;0.00;0.00;;;4.90;99.90;;;;;;4924600;28;20035;-65
2021/12/24 15:16:18;;;;;;;0.00;0.00;;;4.80;99.90;;;;;;4922475;29;20047;-66